createdAt,value
2022-10-17T00:00:07.285Z,0.00
2022-10-17T00:01:07.313Z,0.00
2022-10-17T00:02:07.257Z,0.00
2022-10-17T00:03:07.271Z,0.00
2022-10-17T00:04:07.262Z,0.00
2022-10-17T00:05:07.228Z,0.00
2022-10-17T00:06:07.230Z,0.00
2022-10-17T00:07:07.222Z,0.00
2022-10-17T00:08:07.196Z,0.00
2022-10-17T00:09:07.209Z,0.00
2022-10-17T00:10:07.178Z,0.00
2022-10-17T00:11:07.160Z,0.00
2022-10-17T00:12:07.156Z,0.00
2022-10-17T00:13:07.140Z,0.00
2022-10-17T00:14:07.135Z,0.00
2022-10-17T00:15:07.154Z,0.00
2022-10-17T00:16:07.109Z,0.00
2022-10-17T00:17:07.130Z,0.00
2022-10-17T00:18:07.089Z,0.00
2022-10-17T00:19:07.073Z,0.00
2022-10-17T00:20:07.066Z,0.00
2022-10-17T00:21:07.052Z,0.00
2022-10-17T00:22:07.065Z,0.00
2022-10-17T00:23:07.027Z,0.00
2022-10-17T00:24:07.023Z,0.00
2022-10-17T00:25:07.036Z,0.00
2022-10-17T00:26:06.999Z,0.00
2022-10-17T00:27:06.986Z,0.00
2022-10-17T00:28:06.997Z,0.00
2022-10-17T00:29:07.053Z,0.00
2022-10-17T00:30:06.978Z,0.00
2022-10-17T00:31:06.970Z,0.00
2022-10-17T00:32:06.932Z,0.00
2022-10-17T00:33:06.919Z,0.00
2022-10-17T00:34:06.928Z,0.00
2022-10-17T00:35:06.898Z,0.00
2022-10-17T00:36:06.889Z,0.00
2022-10-17T00:37:06.874Z,0.00
2022-10-17T00:38:06.865Z,0.00
2022-10-17T00:39:06.876Z,0.00
2022-10-17T00:40:06.873Z,0.00
2022-10-17T00:41:06.830Z,0.00
2022-10-17T00:42:06.826Z,0.00
2022-10-17T00:43:06.813Z,0.00
2022-10-17T00:44:06.831Z,0.00
2022-10-17T00:45:06.792Z,0.00
2022-10-17T00:46:06.780Z,0.00
2022-10-17T00:47:06.781Z,0.00
2022-10-17T00:48:06.762Z,0.00
2022-10-17T00:49:06.768Z,0.00
2022-10-17T00:50:06.799Z,0.00
2022-10-17T00:51:06.753Z,0.00
2022-10-17T00:52:06.755Z,0.00
2022-10-17T00:53:06.707Z,0.00
2022-10-17T00:54:06.714Z,0.00
2022-10-17T00:55:06.680Z,0.00
2022-10-17T00:56:06.692Z,0.00
2022-10-17T00:57:06.662Z,0.00
2022-10-17T00:58:06.648Z,0.00
2022-10-17T01:00:06.631Z,0.00
2022-10-17T01:01:06.672Z,0.00
2022-10-17T01:02:06.603Z,0.00
2022-10-17T01:03:06.615Z,0.00
2022-10-17T01:04:06.583Z,0.00
2022-10-17T01:05:06.574Z,0.00
2022-10-17T01:06:06.579Z,0.00
2022-10-17T01:07:06.547Z,0.00
2022-10-17T01:08:06.563Z,0.00
2022-10-17T01:09:06.523Z,0.00
2022-10-17T01:10:06.532Z,0.00
2022-10-17T01:11:06.506Z,0.00
2022-10-17T01:12:06.498Z,0.00
2022-10-17T01:13:06.501Z,0.00
2022-10-17T01:14:06.470Z,0.00
2022-10-17T01:15:06.456Z,0.00
2022-10-17T01:16:06.452Z,0.00
2022-10-17T01:17:06.439Z,0.00
2022-10-17T01:18:06.449Z,0.00
2022-10-17T01:19:06.435Z,0.00
2022-10-17T01:20:06.409Z,0.00
2022-10-17T01:21:06.393Z,0.00
2022-10-17T01:22:06.381Z,0.00
2022-10-17T01:23:06.391Z,0.00
2022-10-17T01:24:06.365Z,0.00
2022-10-17T01:25:06.370Z,0.00
2022-10-17T01:26:06.339Z,0.00
2022-10-17T01:27:06.327Z,0.00
2022-10-17T01:28:06.322Z,0.00
2022-10-17T01:29:06.307Z,0.00
2022-10-17T01:30:06.329Z,0.00
2022-10-17T01:31:06.284Z,0.00
2022-10-17T01:32:06.274Z,0.00
2022-10-17T01:33:06.263Z,0.00
2022-10-17T01:34:06.254Z,0.00
2022-10-17T01:35:06.259Z,0.00
2022-10-17T01:36:06.256Z,0.00
2022-10-17T01:37:06.219Z,0.00
2022-10-17T01:38:06.209Z,0.00
2022-10-17T01:39:06.198Z,0.00
2022-10-17T01:40:06.190Z,0.00
2022-10-17T01:41:06.196Z,0.00
2022-10-17T01:42:06.162Z,0.00
2022-10-17T01:43:06.155Z,0.00
2022-10-17T01:44:06.140Z,0.00
2022-10-17T01:45:06.136Z,0.00
2022-10-17T01:46:06.146Z,0.00
2022-10-17T01:47:06.114Z,0.00
2022-10-17T01:48:06.101Z,0.00
2022-10-17T01:49:06.086Z,0.00
2022-10-17T01:50:06.081Z,0.00
2022-10-17T01:51:06.112Z,0.00
2022-10-17T01:52:06.058Z,0.00
2022-10-17T01:53:06.048Z,0.00
2022-10-17T01:54:06.032Z,0.00
2022-10-17T01:55:06.018Z,0.00
2022-10-17T01:56:06.036Z,0.00
2022-10-17T01:57:06.005Z,0.00
2022-10-17T01:58:05.993Z,0.00
2022-10-17T01:59:05.998Z,0.00
2022-10-17T02:00:05.973Z,0.00
2022-10-17T02:01:06.008Z,0.00
2022-10-17T02:02:05.969Z,0.00
2022-10-17T02:03:05.932Z,0.00
2022-10-17T02:04:05.921Z,0.00
2022-10-17T02:05:05.914Z,0.00
2022-10-17T02:06:05.903Z,0.00
2022-10-17T02:07:05.943Z,0.00
2022-10-17T02:08:05.879Z,0.00
2022-10-17T02:09:05.871Z,0.00
2022-10-17T02:10:05.859Z,0.00
2022-10-17T02:11:05.853Z,0.00
2022-10-17T02:12:05.836Z,0.00
2022-10-17T02:13:05.846Z,0.00
2022-10-17T02:14:05.883Z,0.00
2022-10-17T02:15:05.803Z,0.00
2022-10-17T02:16:05.795Z,0.00
2022-10-17T02:17:05.781Z,0.00
2022-10-17T02:18:05.767Z,0.00
2022-10-17T02:19:05.780Z,0.00
2022-10-17T02:20:05.771Z,0.00
2022-10-17T02:21:05.735Z,0.00
2022-10-17T02:22:05.727Z,0.00
2022-10-17T02:23:05.776Z,0.00
2022-10-17T02:24:05.731Z,0.00
2022-10-17T02:25:05.694Z,0.00
2022-10-17T02:26:05.682Z,0.00
2022-10-17T02:27:05.682Z,0.00
2022-10-17T02:28:05.661Z,0.00
2022-10-17T02:29:05.719Z,0.00
2022-10-17T02:30:05.661Z,0.00
2022-10-17T02:31:05.625Z,0.00
2022-10-17T02:32:05.620Z,0.00
2022-10-17T02:33:05.602Z,0.00
2022-10-17T02:34:05.614Z,0.00
2022-10-17T02:35:05.608Z,0.00
2022-10-17T02:36:05.572Z,0.00
2022-10-17T02:37:05.562Z,0.00
2022-10-17T02:38:05.550Z,0.00
2022-10-17T02:39:05.556Z,0.00
2022-10-17T02:40:05.570Z,0.00
2022-10-17T02:41:05.520Z,0.00
2022-10-17T02:42:05.531Z,0.00
2022-10-17T02:43:05.492Z,0.00
2022-10-17T02:44:05.489Z,0.00
2022-10-17T02:45:05.472Z,0.00
2022-10-17T02:46:05.486Z,0.00
2022-10-17T02:47:05.455Z,0.00
2022-10-17T02:48:05.441Z,0.00
2022-10-17T02:49:05.431Z,0.00
2022-10-17T02:50:05.444Z,0.00
2022-10-17T02:51:05.410Z,0.00
2022-10-17T02:52:05.401Z,0.00
2022-10-17T02:53:05.384Z,0.00
2022-10-17T02:54:05.381Z,0.00
2022-10-17T02:55:05.409Z,0.00
2022-10-17T02:56:05.375Z,0.00
2022-10-17T02:57:05.343Z,0.00
2022-10-17T02:58:05.329Z,0.00
2022-10-17T02:59:05.325Z,0.00
2022-10-17T03:00:05.336Z,0.00
2022-10-17T03:01:05.389Z,0.00
2022-10-17T03:02:05.291Z,0.00
2022-10-17T03:03:05.279Z,0.00
2022-10-17T03:04:05.273Z,0.00
2022-10-17T03:05:05.280Z,0.00
2022-10-17T03:06:05.246Z,0.00
2022-10-17T03:07:05.242Z,0.00
2022-10-17T03:08:05.227Z,0.00
2022-10-17T03:09:05.221Z,0.00
2022-10-17T03:10:05.246Z,0.00
2022-10-17T03:11:05.247Z,0.00
2022-10-17T03:12:05.183Z,0.00
2022-10-17T03:13:05.173Z,0.00
2022-10-17T03:14:05.159Z,0.00
2022-10-17T03:15:05.153Z,0.00
2022-10-17T03:16:05.162Z,0.00
2022-10-17T03:17:05.130Z,0.00
2022-10-17T03:18:05.119Z,0.00
2022-10-17T03:19:05.111Z,0.00
2022-10-17T03:20:05.122Z,0.00
2022-10-17T03:21:05.083Z,0.00
2022-10-17T03:22:05.080Z,0.00
2022-10-17T03:23:05.064Z,0.00
2022-10-17T03:24:05.051Z,0.00
2022-10-17T03:25:05.068Z,0.00
2022-10-17T03:26:05.032Z,0.00
2022-10-17T03:27:05.040Z,0.00
2022-10-17T03:28:05.011Z,0.00
2022-10-17T03:29:05.076Z,0.00
2022-10-17T03:30:04.982Z,0.00
2022-10-17T03:31:05.000Z,0.00
2022-10-17T03:32:04.962Z,0.00
2022-10-17T03:33:04.955Z,0.00
2022-10-17T03:34:04.945Z,0.00
2022-10-17T03:35:04.933Z,0.00
2022-10-17T03:36:04.944Z,0.00
2022-10-17T03:37:04.912Z,0.00
2022-10-17T03:38:04.925Z,0.00
2022-10-17T03:39:04.897Z,0.00
2022-10-17T03:40:04.879Z,0.00
2022-10-17T03:41:04.868Z,0.00
2022-10-17T03:42:04.853Z,0.00
2022-10-17T03:43:04.891Z,0.00
2022-10-17T03:44:04.831Z,0.00
2022-10-17T03:45:04.822Z,0.00
2022-10-17T03:46:04.852Z,0.00
2022-10-17T03:47:04.803Z,0.00
2022-10-17T03:48:04.817Z,0.00
2022-10-17T03:49:04.781Z,0.00
2022-10-17T03:50:04.767Z,0.00
2022-10-17T03:51:04.756Z,0.00
2022-10-17T03:52:04.746Z,0.00
2022-10-17T03:53:04.740Z,0.00
2022-10-17T03:54:04.747Z,0.00
2022-10-17T03:55:04.719Z,0.00
2022-10-17T03:56:04.708Z,0.00
2022-10-17T03:57:04.695Z,0.00
2022-10-17T03:58:04.686Z,0.00
2022-10-17T03:59:04.717Z,0.00
2022-10-17T04:00:04.663Z,0.00
2022-10-17T04:01:04.762Z,0.00
2022-10-17T04:02:04.645Z,0.00
2022-10-17T04:03:04.650Z,0.00
2022-10-17T04:04:04.617Z,0.00
2022-10-17T04:05:04.606Z,0.00
2022-10-17T04:06:04.599Z,0.00
2022-10-17T04:07:04.582Z,0.00
2022-10-17T04:08:04.951Z,0.00
2022-10-17T04:09:04.585Z,0.00
2022-10-17T04:10:04.553Z,0.00
2022-10-17T04:11:04.543Z,0.00
2022-10-17T04:12:04.530Z,0.00
2022-10-17T04:13:04.522Z,0.00
2022-10-17T04:14:04.536Z,0.00
2022-10-17T04:15:04.552Z,0.00
2022-10-17T04:16:04.492Z,0.00
2022-10-17T04:17:04.483Z,0.00
2022-10-17T04:19:04.453Z,0.00
2022-10-17T04:20:04.465Z,0.00
2022-10-17T04:21:04.430Z,0.00
2022-10-17T04:22:04.420Z,0.00
2022-10-17T04:23:04.414Z,0.00
2022-10-17T04:24:04.404Z,0.00
2022-10-17T04:25:04.409Z,0.00
2022-10-17T04:26:04.383Z,0.00
2022-10-17T04:27:04.376Z,0.00
2022-10-17T04:28:04.363Z,0.00
2022-10-17T04:29:04.353Z,0.00
2022-10-17T04:30:04.361Z,0.00
2022-10-17T04:31:04.363Z,0.00
2022-10-17T04:32:04.310Z,0.00
2022-10-17T04:33:04.300Z,0.00
2022-10-17T04:34:04.290Z,0.00
2022-10-17T04:35:04.317Z,0.00
2022-10-17T04:36:04.272Z,0.00
2022-10-17T04:37:04.261Z,0.00
2022-10-17T04:38:04.257Z,0.00
2022-10-17T04:39:04.354Z,0.00
2022-10-17T04:40:04.224Z,0.00
2022-10-17T04:41:04.224Z,0.00
2022-10-17T04:42:04.205Z,0.00
2022-10-17T04:43:04.194Z,0.00
2022-10-17T04:44:04.205Z,0.00
2022-10-17T04:45:04.176Z,0.00
2022-10-17T04:46:04.157Z,0.00
2022-10-17T04:47:04.180Z,0.00
2022-10-17T04:48:04.137Z,0.00
2022-10-17T04:49:04.162Z,0.00
2022-10-17T04:50:04.118Z,0.00
2022-10-17T04:51:04.110Z,0.00
2022-10-17T04:52:04.094Z,0.00
2022-10-17T04:53:04.086Z,0.00
2022-10-17T04:54:04.097Z,0.00
2022-10-17T04:55:04.065Z,0.00
2022-10-17T04:56:04.052Z,0.00
2022-10-17T04:57:04.042Z,0.00
2022-10-17T04:58:04.030Z,0.00
2022-10-17T04:59:04.039Z,0.00
2022-10-17T05:00:04.095Z,0.00
2022-10-17T05:01:04.160Z,0.00
2022-10-17T05:02:03.984Z,0.00
2022-10-17T05:03:04.022Z,0.00
2022-10-17T05:04:03.987Z,0.00
2022-10-17T05:05:03.957Z,0.00
2022-10-17T05:06:03.985Z,0.00
2022-10-17T05:07:03.935Z,0.00
2022-10-17T05:08:03.923Z,0.00
2022-10-17T05:09:03.911Z,0.00
2022-10-17T05:10:03.904Z,0.00
2022-10-17T05:11:03.902Z,0.00
2022-10-17T05:12:06.659Z,0.00
2022-10-17T05:13:04.868Z,0.00
2022-10-17T05:14:03.868Z,0.00
2022-10-17T05:15:03.845Z,0.00
2022-10-17T05:16:03.857Z,0.00
2022-10-17T05:17:03.852Z,0.00
2022-10-17T05:18:03.820Z,0.00
2022-10-17T05:19:03.824Z,0.00
2022-10-17T05:20:03.796Z,4.00
2022-10-17T05:21:03.799Z,4.00
2022-10-17T05:22:03.771Z,0.00
2022-10-17T05:23:03.793Z,0.00
2022-10-17T05:24:03.752Z,4.00
2022-10-17T05:25:03.741Z,4.00
2022-10-17T05:26:03.734Z,0.00
2022-10-17T05:27:03.721Z,4.00
2022-10-17T05:28:03.743Z,4.00
2022-10-17T05:29:03.735Z,4.00
2022-10-17T05:30:03.685Z,4.00
2022-10-17T05:31:03.705Z,8.00
2022-10-17T05:32:03.826Z,8.00
2022-10-17T05:33:03.667Z,4.00
2022-10-17T05:34:03.645Z,4.00
2022-10-17T05:35:03.656Z,8.00
2022-10-17T05:36:03.646Z,8.00
2022-10-17T05:37:03.610Z,8.00
2022-10-17T05:38:03.602Z,12.00
2022-10-17T05:39:03.586Z,8.00
2022-10-17T05:40:03.584Z,12.00
2022-10-17T05:41:03.599Z,12.00
2022-10-17T05:42:03.553Z,12.00
2022-10-17T05:43:03.545Z,12.00
2022-10-17T05:44:05.597Z,16.00
2022-10-17T05:45:03.524Z,16.00
2022-10-17T05:46:03.516Z,16.00
2022-10-17T05:47:03.525Z,20.00
2022-10-17T05:48:03.497Z,20.00
2022-10-17T05:49:14.688Z,20.00
2022-10-17T05:50:04.465Z,20.00
2022-10-17T05:51:03.484Z,24.00
2022-10-17T05:52:03.471Z,28.00
2022-10-17T05:53:03.441Z,28.00
2022-10-17T05:54:03.422Z,28.00
2022-10-17T05:55:03.420Z,28.00
2022-10-17T05:56:03.403Z,32.00
2022-10-17T05:57:03.412Z,32.00
2022-10-17T05:58:03.383Z,36.00
2022-10-17T05:59:03.370Z,40.00
2022-10-17T06:00:03.383Z,40.00
2022-10-17T06:01:03.348Z,40.00
2022-10-17T06:02:03.398Z,40.00
2022-10-17T06:03:03.328Z,44.00
2022-10-17T06:04:03.311Z,48.00
2022-10-17T06:05:03.331Z,48.00
2022-10-17T06:06:03.293Z,48.00
2022-10-17T06:07:03.307Z,52.00
2022-10-17T06:08:03.286Z,52.00
2022-10-17T06:09:03.270Z,52.00
2022-10-17T06:10:03.284Z,56.00
2022-10-17T06:11:06.125Z,56.00
2022-10-17T06:12:04.229Z,60.00
2022-10-17T06:13:03.242Z,60.00
2022-10-17T06:14:03.206Z,64.00
2022-10-17T06:15:03.241Z,64.00
2022-10-17T06:16:03.190Z,64.00
2022-10-17T06:17:03.177Z,68.00
2022-10-17T06:18:03.166Z,68.00
2022-10-17T06:19:03.158Z,72.00
2022-10-17T06:20:03.143Z,72.00
2022-10-17T06:21:03.157Z,72.00
2022-10-17T06:22:03.128Z,72.00
2022-10-17T06:23:03.165Z,76.00
2022-10-17T06:24:03.101Z,76.00
2022-10-17T06:25:03.088Z,80.00
2022-10-17T06:26:03.093Z,76.00
2022-10-17T06:27:04.325Z,80.00
2022-10-17T06:28:03.059Z,80.00
2022-10-17T06:29:03.127Z,80.00
2022-10-17T06:30:03.038Z,80.00
2022-10-17T06:31:03.046Z,88.00
2022-10-17T06:32:03.013Z,88.00
2022-10-17T06:33:03.011Z,92.00
2022-10-17T06:34:03.016Z,92.00
2022-10-17T06:35:02.983Z,92.00
2022-10-17T06:36:02.992Z,100.00
2022-10-17T06:37:02.964Z,104.00
2022-10-17T06:38:02.947Z,108.00
2022-10-17T06:39:03.000Z,112.00
2022-10-17T06:40:02.926Z,120.00
2022-10-17T06:41:02.918Z,120.00
2022-10-17T06:42:02.911Z,124.00
2022-10-17T06:43:02.895Z,128.00
2022-10-17T06:44:02.884Z,128.00
2022-10-17T06:45:02.908Z,132.00
2022-10-17T06:46:02.870Z,140.00
2022-10-17T06:47:02.854Z,140.00
2022-10-17T06:48:02.837Z,144.00
2022-10-17T06:49:02.835Z,144.00
2022-10-17T06:50:02.840Z,144.00
2022-10-17T06:51:02.808Z,140.00
2022-10-17T06:52:02.793Z,136.00
2022-10-17T06:53:02.787Z,128.00
2022-10-17T06:54:02.777Z,128.00
2022-10-17T06:56:02.757Z,124.00
2022-10-17T06:57:02.739Z,124.00
2022-10-17T06:58:02.766Z,128.00
2022-10-17T06:59:02.749Z,128.00
2022-10-17T07:00:02.713Z,132.00
2022-10-17T07:01:02.913Z,136.00
2022-10-17T07:02:02.693Z,144.00
2022-10-17T07:03:02.679Z,156.00
2022-10-17T07:04:02.673Z,156.00
2022-10-17T07:05:02.702Z,160.00
2022-10-17T07:06:02.666Z,172.00
2022-10-17T07:07:02.634Z,172.00
2022-10-17T07:08:02.619Z,180.00
2022-10-17T07:09:02.610Z,184.00
2022-10-17T07:10:02.604Z,192.00
2022-10-17T07:11:02.642Z,196.00
2022-10-17T07:12:02.583Z,196.00
2022-10-17T07:13:02.574Z,188.00
2022-10-17T07:14:02.567Z,176.00
2022-10-17T07:15:02.552Z,184.00
2022-10-17T07:16:02.596Z,188.00
2022-10-17T07:17:02.529Z,188.00
2022-10-17T07:18:02.510Z,188.00
2022-10-17T07:19:02.498Z,192.00
2022-10-17T07:20:02.492Z,196.00
2022-10-17T07:21:02.481Z,204.00
2022-10-17T07:22:02.486Z,196.00
2022-10-17T07:23:02.457Z,200.00
2022-10-17T07:24:02.447Z,200.00
2022-10-17T07:25:02.433Z,208.00
2022-10-17T07:26:02.449Z,208.00
2022-10-17T07:27:02.431Z,200.00
2022-10-17T07:28:02.407Z,196.00
2022-10-17T07:29:02.474Z,192.00
2022-10-17T07:30:02.384Z,180.00
2022-10-17T07:31:02.387Z,176.00
2022-10-17T07:32:02.362Z,168.00
2022-10-17T07:33:02.348Z,164.00
2022-10-17T07:34:02.342Z,160.00
2022-10-17T07:35:02.324Z,160.00
2022-10-17T07:36:02.335Z,156.00
2022-10-17T07:37:02.303Z,168.00
2022-10-17T07:38:02.318Z,180.00
2022-10-17T07:39:02.283Z,180.00
2022-10-17T07:40:02.273Z,180.00
2022-10-17T07:41:02.263Z,168.00
2022-10-17T07:42:02.247Z,172.00
2022-10-17T07:43:02.277Z,172.00
2022-10-17T07:44:02.231Z,176.00
2022-10-17T07:45:02.221Z,172.00
2022-10-17T07:46:02.213Z,180.00
2022-10-17T07:47:02.191Z,188.00
2022-10-17T07:48:02.210Z,184.00
2022-10-17T07:49:02.175Z,184.00
2022-10-17T07:50:02.162Z,188.00
2022-10-17T07:51:02.173Z,188.00
2022-10-17T07:52:02.142Z,188.00
2022-10-17T07:53:02.131Z,188.00
2022-10-17T07:54:02.115Z,188.00
2022-10-17T07:55:02.111Z,188.00
2022-10-17T07:56:02.128Z,200.00
2022-10-17T07:57:02.086Z,200.00
2022-10-17T07:58:02.075Z,200.00
2022-10-17T07:59:05.131Z,204.00
2022-10-17T08:00:03.069Z,220.00
2022-10-17T08:02:02.055Z,228.00
2022-10-17T08:03:02.022Z,220.00
2022-10-17T08:04:02.022Z,224.00
2022-10-17T08:05:02.005Z,228.00
2022-10-17T08:06:01.998Z,228.00
2022-10-17T08:07:18.292Z,220.00
2022-10-17T08:08:02.975Z,204.00
2022-10-17T08:09:01.955Z,216.00
2022-10-17T08:10:02.052Z,224.00
2022-10-17T08:11:01.932Z,236.00
2022-10-17T08:12:01.942Z,240.00
2022-10-17T08:13:01.913Z,244.00
2022-10-17T08:14:01.898Z,248.00
2022-10-17T08:15:02.137Z,244.00
2022-10-17T08:16:01.885Z,240.00
2022-10-17T08:17:01.887Z,252.00
2022-10-17T08:18:01.866Z,256.00
2022-10-17T08:19:01.865Z,260.00
2022-10-17T08:20:01.839Z,260.00
2022-10-17T08:21:01.851Z,260.00
2022-10-17T08:22:01.833Z,268.00
2022-10-17T08:23:01.803Z,276.00
2022-10-17T08:24:01.792Z,288.00
2022-10-17T08:25:01.806Z,312.00
2022-10-17T08:26:01.770Z,336.00
2022-10-17T08:27:01.776Z,348.00
2022-10-17T08:28:01.786Z,336.00
2022-10-17T08:29:01.775Z,348.00
2022-10-17T08:30:01.760Z,336.00
2022-10-17T08:31:01.735Z,316.00
2022-10-17T08:32:03.687Z,304.00
2022-10-17T08:33:01.697Z,296.00
2022-10-17T08:34:01.715Z,284.00
2022-10-17T08:35:01.702Z,280.00
2022-10-17T08:36:01.664Z,300.00
2022-10-17T08:37:01.710Z,308.00
2022-10-17T08:38:01.643Z,328.00
2022-10-17T08:39:01.629Z,320.00
2022-10-17T08:40:01.621Z,308.00
2022-10-17T08:41:01.643Z,300.00
2022-10-17T08:42:01.601Z,264.00
2022-10-17T08:43:01.588Z,252.00
2022-10-17T08:44:01.585Z,260.00
2022-10-17T08:45:01.583Z,264.00
2022-10-17T08:46:01.585Z,272.00
2022-10-17T08:47:01.584Z,272.00
2022-10-17T08:48:01.549Z,272.00
2022-10-17T08:49:01.540Z,264.00
2022-10-17T08:50:01.515Z,264.00
2022-10-17T08:51:01.528Z,260.00
2022-10-17T08:52:01.515Z,260.00
2022-10-17T08:53:01.483Z,264.00
2022-10-17T08:54:01.466Z,268.00
2022-10-17T08:55:01.461Z,268.00
2022-10-17T08:56:01.472Z,260.00
2022-10-17T08:57:01.434Z,280.00
2022-10-17T08:58:01.445Z,300.00
2022-10-17T08:59:01.418Z,308.00
2022-10-17T09:00:01.417Z,316.00
2022-10-17T09:01:01.386Z,316.00
2022-10-17T09:02:01.381Z,328.00
2022-10-17T09:03:01.435Z,328.00
2022-10-17T09:04:01.361Z,332.00
2022-10-17T09:05:01.348Z,336.00
2022-10-17T09:06:01.337Z,332.00
2022-10-17T09:07:01.324Z,324.00
2022-10-17T09:08:01.346Z,316.00
2022-10-17T09:09:01.304Z,320.00
2022-10-17T09:10:01.303Z,316.00
2022-10-17T09:11:01.277Z,320.00
2022-10-17T09:12:01.272Z,320.00
2022-10-17T09:13:06.788Z,320.00
2022-10-17T09:14:02.245Z,324.00
2022-10-17T09:15:01.251Z,328.00
2022-10-17T09:16:01.230Z,328.00
2022-10-17T09:17:01.213Z,324.00
2022-10-17T09:18:01.239Z,344.00
2022-10-17T09:19:01.244Z,352.00
2022-10-17T09:20:01.182Z,364.00
2022-10-17T09:21:01.173Z,376.00
2022-10-17T09:22:01.160Z,360.00
2022-10-17T09:23:01.167Z,372.00
2022-10-17T09:24:08.824Z,380.00
2022-10-17T09:25:02.129Z,392.00
2022-10-17T09:26:01.123Z,396.00
2022-10-17T09:27:01.107Z,388.00
2022-10-17T09:28:01.109Z,392.00
2022-10-17T09:29:01.199Z,396.00
2022-10-17T09:30:01.077Z,388.00
2022-10-17T09:31:01.064Z,368.00
2022-10-17T09:32:01.067Z,376.00
2022-10-17T09:33:01.054Z,364.00
2022-10-17T09:34:01.058Z,352.00
2022-10-17T09:35:01.041Z,352.00
2022-10-17T09:36:01.011Z,340.00
2022-10-17T09:37:01.000Z,340.00
2022-10-17T09:38:01.186Z,332.00
2022-10-17T09:39:01.000Z,332.00
2022-10-17T09:40:00.970Z,320.00
2022-10-17T09:41:01.000Z,332.00
2022-10-17T09:42:00.945Z,332.00
2022-10-17T09:43:00.936Z,340.00
2022-10-17T09:44:00.953Z,344.00
2022-10-17T09:45:00.919Z,352.00
2022-10-17T09:46:00.910Z,352.00
2022-10-17T09:47:00.897Z,356.00
2022-10-17T09:48:01.816Z,368.00
2022-10-17T09:50:00.862Z,372.00
2022-10-17T09:51:14.750Z,360.00
2022-10-17T09:52:01.848Z,368.00
2022-10-17T09:53:00.825Z,388.00
2022-10-17T09:54:00.843Z,384.00
2022-10-17T09:55:00.810Z,396.00
2022-10-17T09:56:00.795Z,408.00
2022-10-17T09:57:00.780Z,424.00
2022-10-17T09:58:00.778Z,444.00
2022-10-17T09:59:00.766Z,468.00
2022-10-17T10:00:00.884Z,484.00
2022-10-17T10:01:00.817Z,492.00
2022-10-17T10:02:00.732Z,472.00
2022-10-17T10:03:00.726Z,504.00
2022-10-17T10:04:00.708Z,520.00
2022-10-17T10:05:05.414Z,520.00
2022-10-17T10:06:01.702Z,524.00
2022-10-17T10:07:00.704Z,492.00
2022-10-17T10:08:00.666Z,468.00
2022-10-17T10:09:00.655Z,488.00
2022-10-17T10:10:00.675Z,480.00
2022-10-17T10:11:00.630Z,496.00
2022-10-17T10:12:00.624Z,536.00
2022-10-17T10:13:00.616Z,592.00
2022-10-17T10:14:00.601Z,652.00
2022-10-17T10:15:00.642Z,632.00
2022-10-17T10:16:00.581Z,632.00
2022-10-17T10:17:00.567Z,668.00
2022-10-17T10:18:00.554Z,672.00
2022-10-17T10:19:02.656Z,708.00
2022-10-17T10:20:00.541Z,716.00
2022-10-17T10:21:00.544Z,756.00
2022-10-17T10:22:00.514Z,752.00
2022-10-17T10:23:00.523Z,716.00
2022-10-17T10:24:00.515Z,748.00
2022-10-17T10:25:00.488Z,808.00
2022-10-17T10:26:00.494Z,832.00
2022-10-17T10:27:00.462Z,876.00
2022-10-17T10:28:01.464Z,848.00
2022-10-17T10:29:00.575Z,884.00
2022-10-17T10:30:00.429Z,880.00
2022-10-17T10:31:00.436Z,888.00
2022-10-17T10:32:00.410Z,876.00
2022-10-17T10:33:00.419Z,864.00
2022-10-17T10:34:00.388Z,832.00
2022-10-17T10:35:00.381Z,772.00
2022-10-17T10:36:00.363Z,724.00
2022-10-17T10:37:00.351Z,732.00
2022-10-17T10:38:00.361Z,712.00
2022-10-17T10:39:02.563Z,692.00
2022-10-17T10:40:00.323Z,620.00
2022-10-17T10:41:00.304Z,592.00
2022-10-17T10:42:00.300Z,612.00
2022-10-17T10:43:05.184Z,620.00
2022-10-17T10:44:01.304Z,600.00
2022-10-17T10:45:00.293Z,596.00
2022-10-17T10:46:00.254Z,584.00
2022-10-17T10:47:00.243Z,572.00
2022-10-17T10:48:00.261Z,548.00
2022-10-17T10:49:00.276Z,548.00
2022-10-17T10:50:00.217Z,552.00
2022-10-17T10:51:00.199Z,592.00
2022-10-17T10:52:00.187Z,584.00
2022-10-17T10:53:00.177Z,600.00
2022-10-17T10:54:00.186Z,728.00
2022-10-17T10:55:00.181Z,768.00
2022-10-17T10:56:00.151Z,724.00
2022-10-17T10:57:00.156Z,704.00
2022-10-17T10:58:00.122Z,744.00
2022-10-17T10:59:00.135Z,764.00
2022-10-17T11:00:00.105Z,832.00
2022-10-17T11:01:00.174Z,864.00
2022-10-17T11:02:00.085Z,860.00
2022-10-17T11:03:01.908Z,732.00
2022-10-17T11:04:00.097Z,608.00
2022-10-17T11:05:00.051Z,548.00
2022-10-17T11:06:00.039Z,620.00
2022-10-17T11:07:00.035Z,736.00
2022-10-17T11:08:00.021Z,840.00
2022-10-17T11:09:00.008Z,856.00
2022-10-17T11:10:00.021Z,712.00
2022-10-17T11:11:00.006Z,696.00
2022-10-17T11:11:59.978Z,744.00
2022-10-17T11:12:59.970Z,748.00
2022-10-17T11:13:59.976Z,708.00
2022-10-17T11:14:59.944Z,692.00
2022-10-17T11:15:59.931Z,696.00
2022-10-17T11:16:59.928Z,716.00
2022-10-17T11:17:59.911Z,724.00
2022-10-17T11:18:59.916Z,700.00
2022-10-17T11:19:59.914Z,684.00
2022-10-17T11:20:59.884Z,680.00
2022-10-17T11:21:59.869Z,660.00
2022-10-17T11:22:59.860Z,632.00
2022-10-17T11:23:59.850Z,640.00
2022-10-17T11:24:59.866Z,620.00
2022-10-17T11:25:59.824Z,616.00
2022-10-17T11:26:59.839Z,608.00
2022-10-17T11:28:04.720Z,588.00
2022-10-17T11:29:00.868Z,580.00
2022-10-17T11:29:59.806Z,572.00
2022-10-17T11:31:01.421Z,552.00
2022-10-17T11:31:59.766Z,548.00
2022-10-17T11:32:59.754Z,548.00
2022-10-17T11:33:59.738Z,552.00
2022-10-17T11:34:59.746Z,564.00
2022-10-17T11:35:59.743Z,572.00
2022-10-17T11:36:59.707Z,596.00
2022-10-17T11:37:59.697Z,604.00
2022-10-17T11:38:59.695Z,604.00
2022-10-17T11:39:59.674Z,624.00
2022-10-17T11:40:59.692Z,636.00
2022-10-17T11:42:03.253Z,652.00
2022-10-17T11:42:59.668Z,644.00
2022-10-17T11:43:59.627Z,660.00
2022-10-17T11:44:59.624Z,660.00
2022-10-17T11:45:59.610Z,672.00
2022-10-17T11:46:59.619Z,672.00
2022-10-17T11:47:59.592Z,696.00
2022-10-17T11:48:59.575Z,688.00
2022-10-17T11:51:59.697Z,692.00
2022-10-17T11:52:02.138Z,720.00
2022-10-17T11:53:00.019Z,720.00
2022-10-17T11:53:59.523Z,712.00
2022-10-17T11:54:59.533Z,700.00
2022-10-17T11:55:59.500Z,700.00
2022-10-17T11:56:59.487Z,684.00
2022-10-17T11:57:59.477Z,692.00
2022-10-17T11:58:59.492Z,712.00
2022-10-17T11:59:59.483Z,732.00
2022-10-17T12:00:59.444Z,724.00
2022-10-17T12:01:59.461Z,716.00
2022-10-17T12:02:59.425Z,716.00
2022-10-17T12:03:59.442Z,732.00
2022-10-17T12:04:59.406Z,724.00
2022-10-17T12:05:59.422Z,724.00
2022-10-17T12:06:59.413Z,700.00
2022-10-17T12:07:59.376Z,680.00
2022-10-17T12:08:59.367Z,648.00
2022-10-17T12:09:59.458Z,604.00
2022-10-17T12:10:59.343Z,588.00
2022-10-17T12:11:59.332Z,548.00
2022-10-17T12:12:59.348Z,544.00
2022-10-17T12:14:01.573Z,540.00
2022-10-17T12:15:00.318Z,528.00
2022-10-17T12:15:59.289Z,516.00
2022-10-17T12:16:59.278Z,516.00
2022-10-17T12:17:59.283Z,496.00
2022-10-17T12:18:59.285Z,468.00
2022-10-17T12:19:59.250Z,448.00
2022-10-17T12:20:59.230Z,444.00
2022-10-17T12:21:59.222Z,436.00
2022-10-17T12:22:59.210Z,380.00
2022-10-17T12:23:59.299Z,376.00
2022-10-17T12:24:59.211Z,360.00
2022-10-17T12:26:01.591Z,352.00
2022-10-17T12:27:00.166Z,356.00
2022-10-17T12:27:59.175Z,348.00
2022-10-17T12:28:59.235Z,348.00
2022-10-17T12:29:59.165Z,348.00
2022-10-17T12:30:59.146Z,340.00
2022-10-17T12:31:59.112Z,348.00
2022-10-17T12:33:07.378Z,356.00
2022-10-17T12:34:00.105Z,360.00
2022-10-17T12:34:59.109Z,372.00
2022-10-17T12:35:59.073Z,372.00
2022-10-17T12:36:59.081Z,396.00
2022-10-17T12:37:59.447Z,412.00
2022-10-17T12:38:59.039Z,400.00
2022-10-17T12:39:59.035Z,380.00
2022-10-17T12:40:59.023Z,372.00
2022-10-17T12:41:59.030Z,364.00
2022-10-17T12:42:59.025Z,352.00
2022-10-17T12:43:58.983Z,344.00
2022-10-17T12:44:58.978Z,336.00
2022-10-17T12:45:58.962Z,340.00
2022-10-17T12:46:58.998Z,336.00
2022-10-17T12:47:58.969Z,332.00
2022-10-17T12:48:58.936Z,340.00
2022-10-17T12:49:58.924Z,340.00
2022-10-17T12:51:17.629Z,340.00
2022-10-17T12:51:59.903Z,352.00
2022-10-17T12:52:58.885Z,348.00
2022-10-17T12:53:58.896Z,364.00
2022-10-17T12:55:10.920Z,376.00
2022-10-17T12:55:59.867Z,396.00
2022-10-17T12:56:58.849Z,388.00